Midway, AR

10:01 PM CDT on March 29, 2017 (GMT -0500)
Wildrose | | Change Station
Active Advisory: Tornado Watch

Elev 899 ft 36.39 °N, 92.46 °W | Updated 20 seconds ago

Rain
Rain
63.4 °F
Feels Like 63.4 °F
N
0.0
Wind Variable Wind from SE

Today
High -- | Low -- °F
--% Chance of Precip.
Yesterday
High -- | Low -- °F
Precip. -- in
Pressure 29.69 in
Visibility 10.0 miles
Clouds Few 4300 ft
Scattered Clouds 5000 ft
Mostly Cloudy 6000 ft
Dew Point 60 °F
Humidity 91%
Rainfall 0.14 in
Snow Depth Not available.
6:59 AM 7:29 PM
Waxing Crescent, 6% visible
METAR KBPK 300253Z AUTO 23004KT 10SM VCTS FEW043 SCT050 BKN060 17/17 A2970 RMK AO2 LTG DSNT N-SE RAE35 TSE05B08E23 SLP053 6//// T01720167 53001 PNO $
Pressure 29.69 in
Visibility 10.0 miles
Clouds Few 4300 ft
Scattered Clouds 5000 ft
Mostly Cloudy 6000 ft
Dew Point 60 °F
Humidity 91%
Rainfall 0.14 in
Snow Depth Not available.
6:59 AM 7:29 PM
Waxing Crescent, 6% visible
METAR KBPK 300253Z AUTO 23004KT 10SM VCTS FEW043 SCT050 BKN060 17/17 A2970 RMK AO2 LTG DSNT N-SE RAE35 TSE05B08E23 SLP053 6//// T01720167 53001 PNO $

Get Your Daily Forecast Email!

Thanks for signing up!

Be on the lookout for a verification email in your inbox.

You'll start receiving severe weather alerts in your inbox..

×

10-Day Weather Forecast

Almanac

Astronomy

Mar. 29, 2017 Rise Set
Actual Time
Civil Twilight
Nautical Twilight
Astronomical Twilight
Moon
Length of Visible Light
Length of Day
Tomorrow will be .
, % of the Moon is Illuminated

Today's Extremes

State Highs State Lows

Community

WunderPhotos

Upload Photos

1,962,540 photos uploaded!

WunderBlog® & News

Nearby

Air Quality

  Air Quality AQ Index Pollutant
Not available.

Snow Depth

Station Depth Elevation

Earthquake Activity

City Distance Mag. Time & Date
Minimum magnitude displayed is 2.5.

Earthquake Activity

City Distance Mag. Time & Date
Minimum magnitude displayed is 2.5.

Coastal Water Temperatures

Place Temperature

Stations

Nearby Weather Stations

Station Location Temp. Windchill Dew Point Humidity Wind Precip. Elev Updated Type
                   

Watches & Warnings

Tornado Watch
Issued: 9:43 PM CDT Mar. 29, 2017 – National Weather Service

Tornado Watch 100 remains in effect until 1200 am CDT for the
following locations


AR
. Arkansas counties included are

Baxter Boone Carroll
Clark Cleburne Conway
Faulkner Franklin Fulton
Garland Hempstead Hot Spring
Howard Independence Izard
Johnson Lafayette Little River
Logan Lonoke Madison
Marion Miller Montgomery
Nevada Newton Perry
Pike Polk Pope
Pulaski Saline Scott
Searcy Sevier sharp
stone Van Buren white
Yell